Time;durP1;ratioP1;P1;durP2;ratioP2;P2;SDS_P1;SDS_P2;PMS_P1;PMS_P2;Temp;Humidity;BMP_temperature;BMP_pressure;BME280_temperature;BME280_humidity;BME280_pressure;Samples;Min_cycle;Max_cycle;Signal;HPM_P1;HPM_P2
2022/10/18 00:02:14;;;;;;;14.73;5.43;;;;;;;;;;5020047;28;20934;-72
2022/10/18 00:04:40;;;;;;;13.23;5.38;;;;;;;;;;5025710;28;20026;-72
2022/10/18 00:07:06;;;;;;;15.18;6.47;;;;;;;;;;5016502;28;20083;-72
2022/10/18 00:09:33;;;;;;;11.45;5.53;;;;;;;;;;5020314;28;20030;-72
2022/10/18 00:11:59;;;;;;;13.82;6.13;;;;;;;;;;5020157;28;20488;-71
2022/10/18 00:14:25;;;;;;;16.00;6.00;;;;;;;;;;5011315;28;20096;-72
2022/10/18 00:16:51;;;;;;;11.63;4.78;;;;;;;;;;5020157;28;20037;-72
2022/10/18 00:19:17;;;;;;;10.00;5.25;;;;;;;;;;5021129;28;20041;-72
2022/10/18 00:21:43;;;;;;;11.13;4.70;;;;;;;;;;5020289;28;20478;-72
2022/10/18 00:24:09;;;;;;;13.13;4.72;;;;;;;;;;5018869;28;20033;-72
2022/10/18 00:26:35;;;;;;;10.15;4.38;;;;;;;;;;5006124;28;20175;-72
2022/10/18 00:29:03;;;;;;;10.00;4.20;;;;;;;;;;5003770;28;20124;-73
2022/10/18 00:31:31;;;;;;;12.35;4.20;;;;;;;;;;5017805;28;20107;-72
2022/10/18 00:33:59;;;;;;;9.77;3.85;;;;;;;;;;5015207;28;21164;-72
2022/10/18 00:36:25;;;;;;;11.05;4.60;;;;;;;;;;5005434;28;20061;-72
2022/10/18 00:38:51;;;;;;;16.27;4.53;;;;;;;;;;5019434;28;20075;-72
2022/10/18 00:41:19;;;;;;;11.90;4.55;;;;;;;;;;5017002;28;20048;-72
2022/10/18 00:43:51;;;;;;;10.18;4.05;;;;;;;;;;5019133;28;20064;-72
2022/10/18 00:46:17;;;;;;;13.85;4.18;;;;;;;;;;5014364;28;20080;-72
2022/10/18 00:48:43;;;;;;;9.38;4.30;;;;;;;;;;5020132;28;20372;-72
2022/10/18 00:51:09;;;;;;;12.40;3.92;;;;;;;;;;5014195;28;20041;-72
2022/10/18 00:53:36;;;;;;;12.65;4.15;;;;;;;;;;5023185;28;20040;-72
2022/10/18 00:56:02;;;;;;;12.80;4.05;;;;;;;;;;5014581;28;20666;-72
2022/10/18 00:58:28;;;;;;;13.45;4.85;;;;;;;;;;5017581;28;20121;-72
2022/10/18 01:00:54;;;;;;;9.48;4.20;;;;;;;;;;5016926;28;20162;-72
2022/10/18 01:03:20;;;;;;;8.73;3.55;;;;;;;;;;5019578;28;20026;-72
2022/10/18 01:05:47;;;;;;;12.00;4.05;;;;;;;;;;5022560;28;20030;-72
2022/10/18 01:08:22;;;;;;;10.55;4.30;;;;;;;;;;5023854;28;20124;-72
2022/10/18 01:11:00;;;;;;;13.27;4.60;;;;;;;;;;5015477;28;20042;-72
2022/10/18 01:13:42;;;;;;;9.60;4.80;;;;;;;;;;5005089;28;20075;-72
2022/10/18 01:16:09;;;;;;;11.07;4.20;;;;;;;;;;5019382;28;20132;-72
2022/10/18 01:19:07;;;;;;;10.82;5.00;;;;;;;;;;5020046;28;20029;-72
2022/10/18 01:21:33;;;;;;;14.93;5.05;;;;;;;;;;4975329;28;20053;-72
2022/10/18 01:24:08;;;;;;;11.98;4.60;;;;;;;;;;5020325;28;20531;-72
2022/10/18 01:27:13;;;;;;;11.27;5.05;;;;;;;;;;5013301;28;20071;-72
2022/10/18 01:29:57;;;;;;;7.80;4.53;;;;;;;;;;4926562;29;20913;-71
2022/10/18 01:32:28;;;;;;;12.23;4.10;;;;;;;;;;4920421;29;20046;-72
2022/10/18 01:34:57;;;;;;;11.35;3.70;;;;;;;;;;4980974;28;20563;-72
2022/10/18 01:37:24;;;;;;;11.10;4.55;;;;;;;;;;5015963;28;20432;-72
2022/10/18 01:39:51;;;;;;;9.93;4.20;;;;;;;;;;5018076;28;20079;-72
2022/10/18 01:42:19;;;;;;;10.95;4.20;;;;;;;;;;5016348;28;20144;-72
2022/10/18 01:44:46;;;;;;;10.45;4.03;;;;;;;;;;5021358;28;20022;-72
2022/10/18 01:47:13;;;;;;;12.82;4.95;;;;;;;;;;5019697;28;20033;-72
2022/10/18 01:49:39;;;;;;;16.38;6.28;;;;;;;;;;5020983;28;20022;-72
2022/10/18 01:52:05;;;;;;;12.10;4.38;;;;;;;;;;5020035;28;20033;-72
2022/10/18 01:54:37;;;;;;;9.88;3.88;;;;;;;;;;5021016;28;20032;-71
2022/10/18 01:57:08;;;;;;;12.85;4.72;;;;;;;;;;5020932;28;20417;-72
2022/10/18 01:59:43;;;;;;;11.85;5.28;;;;;;;;;;5019220;28;20436;-72
2022/10/18 02:02:15;;;;;;;14.82;5.55;;;;;;;;;;5019395;28;20069;-72
2022/10/18 02:04:59;;;;;;;10.75;5.80;;;;;;;;;;5020255;28;20034;-72
2022/10/18 02:07:33;;;;;;;13.15;6.30;;;;;;;;;;5019412;28;20089;-72
2022/10/18 02:10:11;;;;;;;14.32;7.97;;;;;;;;;;5023898;28;20074;-72
2022/10/18 02:12:40;;;;;;;14.88;7.03;;;;;;;;;;5015865;28;20030;-72
2022/10/18 02:15:07;;;;;;;18.63;9.00;;;;;;;;;;5010902;28;20593;-72
2022/10/18 02:17:33;;;;;;;14.77;9.15;;;;;;;;;;5021172;28;20045;-71
2022/10/18 02:20:00;;;;;;;16.27;8.05;;;;;;;;;;5022360;28;20044;-72
2022/10/18 02:22:29;;;;;;;19.85;10.38;;;;;;;;;;5019552;28;20040;-73
2022/10/18 02:24:56;;;;;;;24.13;9.27;;;;;;;;;;5021998;28;20110;-72
2022/10/18 02:27:22;;;;;;;21.52;10.73;;;;;;;;;;5021136;28;20445;-71
2022/10/18 02:29:49;;;;;;;19.35;8.85;;;;;;;;;;5016618;28;20021;-72
2022/10/18 02:32:17;;;;;;;17.90;9.13;;;;;;;;;;5017390;28;20373;-72
2022/10/18 02:34:46;;;;;;;15.98;8.65;;;;;;;;;;5022415;28;20124;-72
2022/10/18 02:37:13;;;;;;;12.85;7.30;;;;;;;;;;5016919;28;20029;-72
2022/10/18 02:39:41;;;;;;;14.45;8.02;;;;;;;;;;5019689;28;20381;-72
2022/10/18 02:42:09;;;;;;;14.15;8.13;;;;;;;;;;5015701;28;20040;-72
2022/10/18 02:44:35;;;;;;;11.90;7.60;;;;;;;;;;5019683;28;20034;-72
2022/10/18 02:47:02;;;;;;;19.95;8.45;;;;;;;;;;5019017;28;20494;-72
2022/10/18 02:49:28;;;;;;;12.18;6.90;;;;;;;;;;5014994;28;20033;-72
2022/10/18 02:51:54;;;;;;;16.20;7.25;;;;;;;;;;5024056;28;20060;-72
2022/10/18 02:54:20;;;;;;;18.20;7.82;;;;;;;;;;5008997;28;20037;-72
2022/10/18 02:56:45;;;;;;;16.17;6.40;;;;;;;;;;5026144;28;20049;-72
2022/10/18 02:59:12;;;;;;;14.20;7.25;;;;;;;;;;5022079;28;20389;-71
2022/10/18 03:01:38;;;;;;;18.02;8.65;;;;;;;;;;5016930;28;20479;-72
2022/10/18 03:04:04;;;;;;;20.50;6.95;;;;;;;;;;5022348;28;20892;-72
2022/10/18 03:06:31;;;;;;;11.93;6.75;;;;;;;;;;5016028;28;20037;-72
2022/10/18 03:08:57;;;;;;;16.33;6.80;;;;;;;;;;5023391;28;20094;-72
2022/10/18 03:11:23;;;;;;;10.50;5.63;;;;;;;;;;5006153;28;20053;-72
2022/10/18 03:13:51;;;;;;;11.50;5.93;;;;;;;;;;5019013;28;20033;-72
2022/10/18 03:16:17;;;;;;;14.68;6.13;;;;;;;;;;5016195;28;20052;-72
2022/10/18 03:18:43;;;;;;;13.07;5.65;;;;;;;;;;5004175;28;20029;-72
2022/10/18 03:21:10;;;;;;;6.80;3.53;;;;;;;;;;5020442;28;20041;-72
2022/10/18 03:23:36;;;;;;;12.60;3.95;;;;;;;;;;5027698;28;20049;-72
2022/10/18 03:26:02;;;;;;;8.20;3.30;;;;;;;;;;5006986;28;20111;-72
2022/10/18 03:28:28;;;;;;;16.25;6.43;;;;;;;;;;5018970;28;20108;-72
2022/10/18 03:31:00;;;;;;;15.40;6.93;;;;;;;;;;5004251;28;20551;-72
2022/10/18 03:33:26;;;;;;;16.73;7.63;;;;;;;;;;5018702;28;20067;-72
2022/10/18 03:35:52;;;;;;;10.07;3.30;;;;;;;;;;5019035;28;20045;-72
2022/10/18 03:38:17;;;;;;;12.25;3.90;;;;;;;;;;5026677;28;20030;-72
2022/10/18 03:40:43;;;;;;;12.75;3.50;;;;;;;;;;5019522;28;20794;-73
2022/10/18 03:43:10;;;;;;;8.35;3.80;;;;;;;;;;5021358;28;20029;-72
2022/10/18 03:45:36;;;;;;;8.90;3.40;;;;;;;;;;5024506;28;20036;-72
2022/10/18 03:48:01;;;;;;;7.93;3.72;;;;;;;;;;5021367;28;20029;-72
2022/10/18 03:50:27;;;;;;;10.82;4.05;;;;;;;;;;5023325;28;20064;-72
2022/10/18 03:52:54;;;;;;;10.50;4.00;;;;;;;;;;5006980;28;20140;-72
2022/10/18 03:55:20;;;;;;;13.70;4.18;;;;;;;;;;5015111;28;20038;-72
2022/10/18 03:57:46;;;;;;;11.20;4.07;;;;;;;;;;5025143;28;20083;-71
2022/10/18 04:00:12;;;;;;;12.50;5.43;;;;;;;;;;5023256;28;20038;-72
2022/10/18 04:02:38;;;;;;;8.55;4.10;;;;;;;;;;5021879;28;20026;-72
2022/10/18 04:05:05;;;;;;;12.20;4.80;;;;;;;;;;5023785;28;20092;-72
2022/10/18 04:07:31;;;;;;;12.88;3.92;;;;;;;;;;5018099;28;20563;-72
2022/10/18 04:09:57;;;;;;;12.75;5.10;;;;;;;;;;5015761;28;20037;-71
2022/10/18 04:12:23;;;;;;;9.25;4.25;;;;;;;;;;5021131;28;20661;-72
2022/10/18 04:14:48;;;;;;;13.75;3.92;;;;;;;;;;5023405;28;20041;-72
2022/10/18 04:17:14;;;;;;;14.85;5.13;;;;;;;;;;5024027;28;20540;-72
2022/10/18 04:19:40;;;;;;;12.82;4.28;;;;;;;;;;5021510;28;20037;-72
2022/10/18 04:22:07;;;;;;;11.27;4.32;;;;;;;;;;5016627;28;20041;-72
2022/10/18 04:24:33;;;;;;;11.20;4.18;;;;;;;;;;5022039;28;20021;-72
2022/10/18 04:26:59;;;;;;;12.77;4.30;;;;;;;;;;5019900;28;20076;-72
2022/10/18 04:29:25;;;;;;;14.52;4.20;;;;;;;;;;5018277;28;20036;-72
2022/10/18 04:31:51;;;;;;;11.95;4.47;;;;;;;;;;5019253;28;20056;-72
2022/10/18 04:34:17;;;;;;;15.60;5.78;;;;;;;;;;5021892;28;20053;-71
2022/10/18 04:36:43;;;;;;;14.77;4.60;;;;;;;;;;5020308;28;20591;-72
2022/10/18 04:39:09;;;;;;;10.48;4.18;;;;;;;;;;5016761;28;20037;-72
2022/10/18 04:41:35;;;;;;;12.65;4.57;;;;;;;;;;5020980;28;20499;-72
2022/10/18 04:44:01;;;;;;;11.05;4.00;;;;;;;;;;5021097;28;20029;-72
2022/10/18 04:46:27;;;;;;;10.70;4.55;;;;;;;;;;5021611;28;20060;-72
2022/10/18 04:48:53;;;;;;;14.48;5.38;;;;;;;;;;5025090;28;20148;-72
2022/10/18 04:51:19;;;;;;;12.88;4.75;;;;;;;;;;5016002;28;20476;-72
2022/10/18 04:53:45;;;;;;;13.85;5.70;;;;;;;;;;5016677;28;20038;-71
2022/10/18 04:56:11;;;;;;;19.17;5.35;;;;;;;;;;5015491;28;20076;-72
2022/10/18 04:58:37;;;;;;;12.65;5.18;;;;;;;;;;5002077;28;20052;-72
2022/10/18 05:01:06;;;;;;;14.02;4.93;;;;;;;;;;5025183;28;20120;-72
2022/10/18 05:03:33;;;;;;;13.55;4.68;;;;;;;;;;4996863;28;20408;-72
2022/10/18 05:05:59;;;;;;;12.02;4.75;;;;;;;;;;5016562;28;20043;-73
2022/10/18 05:08:25;;;;;;;10.00;4.28;;;;;;;;;;5022729;28;20073;-71
2022/10/18 05:10:51;;;;;;;15.43;4.70;;;;;;;;;;5018813;28;20084;-72
2022/10/18 05:13:17;;;;;;;12.93;4.60;;;;;;;;;;5002904;28;20120;-72
2022/10/18 05:15:43;;;;;;;12.52;4.95;;;;;;;;;;5019149;28;20113;-71
2022/10/18 05:18:09;;;;;;;10.90;5.15;;;;;;;;;;5019391;28;20039;-72
2022/10/18 05:20:34;;;;;;;15.55;6.00;;;;;;;;;;5023482;28;20045;-72
2022/10/18 05:23:01;;;;;;;14.93;6.78;;;;;;;;;;5020518;28;20433;-72
2022/10/18 05:25:27;;;;;;;18.35;7.43;;;;;;;;;;5022206;28;20116;-72
2022/10/18 05:27:53;;;;;;;13.80;5.68;;;;;;;;;;5017698;28;20064;-72
2022/10/18 05:30:20;;;;;;;17.20;6.22;;;;;;;;;;5020188;28;20048;-72
2022/10/18 05:32:46;;;;;;;15.35;5.82;;;;;;;;;;5020070;28;20084;-72
2022/10/18 05:35:12;;;;;;;15.10;6.35;;;;;;;;;;5018297;28;20060;-71
2022/10/18 05:37:38;;;;;;;19.55;6.35;;;;;;;;;;5020796;28;20914;-71
2022/10/18 05:40:04;;;;;;;14.90;6.22;;;;;;;;;;5017836;28;20395;-72
2022/10/18 05:42:30;;;;;;;14.95;5.35;;;;;;;;;;5016907;28;20022;-72
2022/10/18 05:44:56;;;;;;;12.20;5.10;;;;;;;;;;5016592;28;20578;-72
2022/10/18 05:47:22;;;;;;;13.23;5.28;;;;;;;;;;5016888;28;20033;-72
2022/10/18 05:49:48;;;;;;;12.88;5.28;;;;;;;;;;5015313;28;20033;-72
2022/10/18 05:52:15;;;;;;;20.23;5.38;;;;;;;;;;5017179;28;20040;-72
2022/10/18 05:54:41;;;;;;;18.25;6.95;;;;;;;;;;5023652;28;20025;-72
2022/10/18 05:57:07;;;;;;;13.52;5.93;;;;;;;;;;5020396;28;20037;-72
2022/10/18 05:59:33;;;;;;;17.50;8.02;;;;;;;;;;5014842;28;20101;-72
2022/10/18 06:01:59;;;;;;;22.98;7.82;;;;;;;;;;5017682;28;20037;-72
2022/10/18 06:04:25;;;;;;;17.85;7.60;;;;;;;;;;5011299;28;20449;-72
2022/10/18 06:06:52;;;;;;;21.85;8.63;;;;;;;;;;5011539;28;20045;-72
2022/10/18 06:09:18;;;;;;;16.75;7.43;;;;;;;;;;5015040;28;20558;-72
2022/10/18 06:11:44;;;;;;;24.80;9.25;;;;;;;;;;5021144;28;20045;-72
2022/10/18 06:14:10;;;;;;;21.38;9.60;;;;;;;;;;5020802;28;20108;-71
2022/10/18 06:16:36;;;;;;;26.27;8.18;;;;;;;;;;5022705;28;20040;-72
2022/10/18 06:19:03;;;;;;;19.90;7.57;;;;;;;;;;5016678;28;20037;-71
2022/10/18 06:21:29;;;;;;;27.10;8.45;;;;;;;;;;5021695;28;20038;-71
2022/10/18 06:23:56;;;;;;;29.10;8.65;;;;;;;;;;5017804;28;20029;-72
2022/10/18 06:26:22;;;;;;;21.15;7.13;;;;;;;;;;5019058;28;20084;-72
2022/10/18 06:28:48;;;;;;;21.60;7.30;;;;;;;;;;5020861;28;20808;-72
2022/10/18 06:31:15;;;;;;;17.58;8.23;;;;;;;;;;5017995;28;20041;-72
2022/10/18 06:33:41;;;;;;;26.88;10.70;;;;;;;;;;5021057;28;20039;-72
2022/10/18 06:36:09;;;;;;;23.60;9.23;;;;;;;;;;5019235;28;20050;-72
2022/10/18 06:38:35;;;;;;;25.85;9.65;;;;;;;;;;5017558;28;20760;-72
2022/10/18 06:41:02;;;;;;;21.98;9.55;;;;;;;;;;5018140;28;20087;-72
2022/10/18 06:43:28;;;;;;;21.73;8.25;;;;;;;;;;5019435;28;20433;-72
2022/10/18 06:45:54;;;;;;;24.13;8.10;;;;;;;;;;5021311;28;20045;-72
2022/10/18 06:48:21;;;;;;;19.63;8.45;;;;;;;;;;5023996;28;20032;-72
2022/10/18 06:50:51;;;;;;;14.65;5.88;;;;;;;;;;5024225;28;20056;-71
2022/10/18 06:53:17;;;;;;;14.95;5.65;;;;;;;;;;5016765;28;20053;-72
2022/10/18 06:55:43;;;;;;;14.23;3.45;;;;;;;;;;5021026;28;20492;-72
2022/10/18 06:58:09;;;;;;;13.48;4.00;;;;;;;;;;5016409;28;20033;-72
2022/10/18 07:00:35;;;;;;;13.38;3.75;;;;;;;;;;5002309;28;20041;-72
2022/10/18 07:03:01;;;;;;;15.25;3.63;;;;;;;;;;5021834;28;20030;-72
2022/10/18 07:05:27;;;;;;;11.88;4.35;;;;;;;;;;5018704;28;20138;-72
2022/10/18 07:07:53;;;;;;;12.52;3.35;;;;;;;;;;5023150;28;22066;-73
2022/10/18 07:10:19;;;;;;;12.25;4.65;;;;;;;;;;5021994;28;20556;-72
2022/10/18 07:12:45;;;;;;;13.90;4.75;;;;;;;;;;5018284;28;20041;-72
2022/10/18 07:15:11;;;;;;;14.15;5.15;;;;;;;;;;5020934;28;20033;-72
2022/10/18 07:17:37;;;;;;;18.95;5.72;;;;;;;;;;5012826;28;20033;-72
2022/10/18 07:20:03;;;;;;;18.83;6.43;;;;;;;;;;5016898;28;20041;-72
2022/10/18 07:22:29;;;;;;;16.58;4.75;;;;;;;;;;5018220;28;20026;-72
2022/10/18 07:24:55;;;;;;;16.08;4.97;;;;;;;;;;5021289;28;20042;-72
2022/10/18 07:27:21;;;;;;;17.60;4.75;;;;;;;;;;5017412;28;20018;-72
2022/10/18 07:29:48;;;;;;;15.55;5.00;;;;;;;;;;5021356;28;20029;-72
2022/10/18 07:32:14;;;;;;;15.35;4.28;;;;;;;;;;5023716;28;20048;-72
2022/10/18 07:34:40;;;;;;;17.52;4.45;;;;;;;;;;5017097;28;20519;-72
2022/10/18 07:37:06;;;;;;;13.07;4.20;;;;;;;;;;5023330;28;20063;-72
2022/10/18 07:39:32;;;;;;;20.38;4.57;;;;;;;;;;5018155;28;20029;-72
2022/10/18 07:41:58;;;;;;;19.45;4.97;;;;;;;;;;5019815;28;20381;-72
2022/10/18 07:44:24;;;;;;;17.73;5.03;;;;;;;;;;5014923;28;20030;-72
2022/10/18 07:46:50;;;;;;;19.67;6.47;;;;;;;;;;5018168;28;20384;-72
2022/10/18 07:49:16;;;;;;;14.30;4.57;;;;;;;;;;5021658;28;20033;-72
2022/10/18 07:51:42;;;;;;;24.08;5.40;;;;;;;;;;5024319;28;20057;-72
2022/10/18 07:54:09;;;;;;;21.98;5.97;;;;;;;;;;5014335;28;20084;-72
2022/10/18 07:56:35;;;;;;;16.42;4.32;;;;;;;;;;5018034;28;20632;-71
2022/10/18 07:59:01;;;;;;;15.35;4.60;;;;;;;;;;5015594;28;20033;-72
2022/10/18 08:01:27;;;;;;;12.80;4.20;;;;;;;;;;5019234;28;20630;-72
2022/10/18 08:03:53;;;;;;;12.25;4.72;;;;;;;;;;5020761;28;20060;-72
2022/10/18 08:06:20;;;;;;;14.90;4.60;;;;;;;;;;5015983;28;20129;-72
2022/10/18 08:08:46;;;;;;;15.57;4.07;;;;;;;;;;5023774;28;20032;-72
2022/10/18 08:11:14;;;;;;;13.73;3.72;;;;;;;;;;5014787;28;20065;-72
2022/10/18 08:13:40;;;;;;;16.85;4.05;;;;;;;;;;5020157;28;20030;-72
2022/10/18 08:16:08;;;;;;;9.63;4.13;;;;;;;;;;5021616;28;20048;-72
2022/10/18 08:18:34;;;;;;;13.98;3.78;;;;;;;;;;5014898;28;20030;-72
2022/10/18 08:21:01;;;;;;;14.20;4.55;;;;;;;;;;5017604;28;20465;-72
2022/10/18 08:23:27;;;;;;;14.85;3.08;;;;;;;;;;5021338;28;20032;-72
2022/10/18 08:25:53;;;;;;;16.23;3.15;;;;;;;;;;5018970;28;20044;-72
2022/10/18 08:28:19;;;;;;;25.05;4.15;;;;;;;;;;5021130;28;20029;-72
2022/10/18 08:30:45;;;;;;;17.08;3.90;;;;;;;;;;5017445;28;20053;-72
2022/10/18 08:33:11;;;;;;;17.27;3.53;;;;;;;;;;5016405;28;20381;-72
2022/10/18 08:35:37;;;;;;;19.83;3.90;;;;;;;;;;5012833;28;20177;-72
2022/10/18 08:38:03;;;;;;;14.43;3.40;;;;;;;;;;5016056;28;20040;-72
2022/10/18 08:40:32;;;;;;;8.73;2.83;;;;;;;;;;5015268;28;20044;-72
2022/10/18 08:43:11;;;;;;;14.50;3.13;;;;;;;;;;5016982;28;20021;-72
2022/10/18 08:45:40;;;;;;;13.82;3.30;;;;;;;;;;5020415;28;20500;-72
2022/10/18 08:48:07;;;;;;;10.55;2.83;;;;;;;;;;5017207;28;20149;-72
2022/10/18 08:50:36;;;;;;;13.68;3.08;;;;;;;;;;5019153;28;20038;-72
2022/10/18 08:53:02;;;;;;;14.07;3.63;;;;;;;;;;5018821;28;20147;-72
2022/10/18 08:55:36;;;;;;;13.43;4.60;;;;;;;;;;5020146;28;20053;-73
2022/10/18 08:58:04;;;;;;;10.35;3.55;;;;;;;;;;5018863;28;20025;-72
2022/10/18 09:00:33;;;;;;;14.13;3.83;;;;;;;;;;5006681;28;20045;-72
2022/10/18 09:03:06;;;;;;;12.75;3.50;;;;;;;;;;5021830;28;20044;-72
2022/10/18 09:05:36;;;;;;;10.50;2.88;;;;;;;;;;5000130;28;20515;-73
2022/10/18 09:08:21;;;;;;;14.98;2.83;;;;;;;;;;5016494;28;20028;-72
2022/10/18 09:10:46;;;;;;;13.60;3.03;;;;;;;;;;5016269;28;20686;-72
2022/10/18 09:13:28;;;;;;;15.13;2.83;;;;;;;;;;5017597;28;20033;-72
2022/10/18 09:15:59;;;;;;;11.65;3.15;;;;;;;;;;5017560;28;20424;-72
2022/10/18 09:18:37;;;;;;;13.60;2.53;;;;;;;;;;5019231;28;20038;-72
2022/10/18 09:21:15;;;;;;;12.18;3.20;;;;;;;;;;5014297;28;20065;-72
2022/10/18 09:24:00;;;;;;;11.77;3.22;;;;;;;;;;5023851;28;20033;-72
2022/10/18 09:26:32;;;;;;;9.90;3.20;;;;;;;;;;5015175;28;20247;-72
2022/10/18 09:29:22;;;;;;;12.90;3.17;;;;;;;;;;5016474;28;20029;-72
2022/10/18 09:31:48;;;;;;;16.55;3.00;;;;;;;;;;4980549;28;20041;-72
2022/10/18 09:34:34;;;;;;;13.85;3.13;;;;;;;;;;5017150;28;20719;-73
2022/10/18 09:37:00;;;;;;;13.63;3.17;;;;;;;;;;5001044;28;20084;-73
2022/10/18 09:39:31;;;;;;;13.88;2.70;;;;;;;;;;5018986;28;20025;-72
2022/10/18 09:42:03;;;;;;;13.00;2.97;;;;;;;;;;5021553;28;20052;-72
2022/10/18 09:44:38;;;;;;;13.95;3.13;;;;;;;;;;4998755;28;20060;-72
2022/10/18 09:47:10;;;;;;;14.02;3.35;;;;;;;;;;5006209;28;20041;-72
2022/10/18 09:49:39;;;;;;;14.88;3.28;;;;;;;;;;5016748;28;20025;-72
2022/10/18 09:52:08;;;;;;;12.48;2.75;;;;;;;;;;5023264;28;20132;-72
2022/10/18 09:54:35;;;;;;;13.38;2.88;;;;;;;;;;5017132;28;20108;-72
2022/10/18 09:57:01;;;;;;;13.23;3.72;;;;;;;;;;5018169;28;20042;-72
2022/10/18 09:59:31;;;;;;;15.75;3.13;;;;;;;;;;5016472;28;20064;-72
2022/10/18 10:01:57;;;;;;;14.32;3.20;;;;;;;;;;5018003;28;20073;-72
2022/10/18 10:04:23;;;;;;;12.48;3.05;;;;;;;;;;5016217;28;20054;-72
2022/10/18 10:06:50;;;;;;;17.17;3.65;;;;;;;;;;5020445;28;20076;-72
2022/10/18 10:09:17;;;;;;;11.80;2.45;;;;;;;;;;5013760;28;20139;-72
2022/10/18 10:11:47;;;;;;;8.63;2.35;;;;;;;;;;5015884;28;20038;-72
2022/10/18 10:14:22;;;;;;;14.48;3.00;;;;;;;;;;5013069;28;20150;-72
2022/10/18 10:16:50;;;;;;;9.32;2.63;;;;;;;;;;5019722;28;20038;-72
2022/10/18 10:19:22;;;;;;;12.23;2.53;;;;;;;;;;5000498;28;20041;-72
2022/10/18 10:21:49;;;;;;;10.87;2.63;;;;;;;;;;5016981;28;20044;-72
2022/10/18 10:24:36;;;;;;;10.10;2.53;;;;;;;;;;5013124;28;20293;-72
2022/10/18 10:27:05;;;;;;;12.13;2.30;;;;;;;;;;5020701;28;20415;-72
2022/10/18 10:29:46;;;;;;;12.60;2.90;;;;;;;;;;5011353;28;20036;-72
2022/10/18 10:32:14;;;;;;;10.52;2.03;;;;;;;;;;5018039;28;20037;-72
2022/10/18 10:34:40;;;;;;;15.05;2.60;;;;;;;;;;5018485;28;20081;-73
2022/10/18 10:37:23;;;;;;;11.88;2.65;;;;;;;;;;5014052;28;20050;-72
2022/10/18 10:40:10;;;;;;;11.48;2.95;;;;;;;;;;5003901;28;20199;-72
2022/10/18 10:42:50;;;;;;;11.00;2.40;;;;;;;;;;4974810;28;20061;-72
2022/10/18 10:45:16;;;;;;;13.43;2.85;;;;;;;;;;5014847;28;20053;-72
2022/10/18 10:47:42;;;;;;;13.95;2.88;;;;;;;;;;4997643;28;20061;-72
2022/10/18 10:50:12;;;;;;;12.02;2.58;;;;;;;;;;5015506;28;20125;-72
2022/10/18 10:52:39;;;;;;;13.02;2.40;;;;;;;;;;5020626;28;20038;-72
2022/10/18 10:55:06;;;;;;;11.27;2.40;;;;;;;;;;5014855;28;20088;-73
2022/10/18 10:57:32;;;;;;;8.40;2.38;;;;;;;;;;5014696;28;20044;-72
2022/10/18 10:59:59;;;;;;;9.70;2.80;;;;;;;;;;5017789;28;20065;-72
2022/10/18 11:02:31;;;;;;;7.55;2.67;;;;;;;;;;5024120;28;21873;-72
2022/10/18 11:04:56;;;;;;;;;;;;;;;;;;5022854;28;20061;-73
2022/10/18 11:07:43;;;;;;;18.05;2.95;;;;;;;;;;5020298;28;19956;-72
2022/10/18 11:10:14;;;;;;;9.02;2.60;;;;;;;;;;5018742;28;20025;-73
2022/10/18 11:12:40;;;;;;;;;;;;;;;;;;5021030;28;20030;-72
2022/10/18 11:15:12;;;;;;;8.68;2.35;;;;;;;;;;5019065;28;19924;-73
2022/10/18 11:17:59;;;;;;;12.57;2.13;;;;;;;;;;5018041;28;20063;-72
2022/10/18 11:20:41;;;;;;;11.35;2.15;;;;;;;;;;5019073;28;20037;-72
2022/10/18 11:23:10;;;;;;;13.02;2.50;;;;;;;;;;5014072;28;20388;-72
2022/10/18 11:25:55;;;;;;;9.07;2.38;;;;;;;;;;5008561;28;20041;-72
2022/10/18 11:28:29;;;;;;;15.80;3.25;;;;;;;;;;5020678;28;20039;-72
2022/10/18 11:31:01;;;;;;;11.55;2.20;;;;;;;;;;5015583;28;20118;-72
2022/10/18 11:33:30;;;;;;;10.00;2.70;;;;;;;;;;5019082;28;20096;-72
2022/10/18 11:36:03;;;;;;;9.40;2.20;;;;;;;;;;5023360;28;20055;-73
2022/10/18 11:38:47;;;;;;;10.73;2.70;;;;;;;;;;5015077;28;20117;-72
2022/10/18 11:41:16;;;;;;;10.85;2.53;;;;;;;;;;5014797;28;20033;-72
2022/10/18 11:43:50;;;;;;;10.95;2.03;;;;;;;;;;5018409;28;20022;-72
2022/10/18 11:46:16;;;;;;;6.00;2.03;;;;;;;;;;5021410;28;20041;-72
2022/10/18 11:48:56;;;;;;;10.23;2.35;;;;;;;;;;5006523;28;20033;-72
2022/10/18 11:51:37;;;;;;;9.40;2.20;;;;;;;;;;5018924;28;20517;-72
2022/10/18 11:54:22;;;;;;;13.98;2.30;;;;;;;;;;5025321;28;20033;-73
2022/10/18 11:56:54;;;;;;;7.38;2.35;;;;;;;;;;5012702;28;20040;-72
2022/10/18 11:59:27;;;;;;;10.43;2.03;;;;;;;;;;5018265;28;20040;-72
2022/10/18 12:02:32;;;;;;;8.63;1.83;;;;;;;;;;5022202;28;20046;-72
2022/10/18 12:05:01;;;;;;;11.43;2.35;;;;;;;;;;4940531;29;20183;-72
2022/10/18 12:07:31;;;;;;;10.23;2.40;;;;;;;;;;4938361;29;20046;-72
2022/10/18 12:09:57;;;;;;;11.35;2.88;;;;;;;;;;4975059;28;20444;-72
2022/10/18 12:12:29;;;;;;;11.70;2.80;;;;;;;;;;5019366;28;20029;-72
2022/10/18 12:14:57;;;;;;;9.65;2.55;;;;;;;;;;5020209;28;20507;-72
2022/10/18 12:17:55;;;;;;;9.27;2.60;;;;;;;;;;5014679;28;20862;-72
2022/10/18 12:20:30;;;;;;;13.57;2.35;;;;;;;;;;4972502;28;20057;-73
2022/10/18 12:22:56;;;;;;;7.90;2.05;;;;;;;;;;5018030;28;20065;-72
2022/10/18 12:25:22;;;;;;;13.32;2.97;;;;;;;;;;5021472;28;20034;-72
2022/10/18 12:27:52;;;;;;;10.43;2.63;;;;;;;;;;5022353;28;20033;-72
2022/10/18 12:30:26;;;;;;;9.57;3.25;;;;;;;;;;4996639;28;20038;-72
2022/10/18 12:33:00;;;;;;;16.63;2.65;;;;;;;;;;5016233;28;20025;-73
2022/10/18 12:35:28;;;;;;;10.20;2.42;;;;;;;;;;5019623;28;20821;-72
2022/10/18 12:38:05;;;;;;;10.40;2.30;;;;;;;;;;5022284;28;20038;-73
2022/10/18 12:40:34;;;;;;;8.68;2.28;;;;;;;;;;5022491;28;20040;-72
2022/10/18 12:43:06;;;;;;;8.88;2.72;;;;;;;;;;5017849;28;20107;-72
2022/10/18 12:45:34;;;;;;;10.93;2.67;;;;;;;;;;5017161;28;20061;-73
2022/10/18 12:48:01;;;;;;;6.32;2.05;;;;;;;;;;5021935;28;20025;-72
2022/10/18 12:50:27;;;;;;;10.88;2.85;;;;;;;;;;5019700;28;20060;-73
2022/10/18 12:53:08;;;;;;;12.18;2.30;;;;;;;;;;5021402;28;20882;-73
2022/10/18 12:55:39;;;;;;;12.18;2.10;;;;;;;;;;5013787;28;20059;-72
2022/10/18 12:58:25;;;;;;;12.25;2.92;;;;;;;;;;5001719;28;20033;-73
2022/10/18 13:00:56;;;;;;;8.10;2.35;;;;;;;;;;5016785;28;20051;-73
2022/10/18 13:03:24;;;;;;;9.73;2.60;;;;;;;;;;5018812;28;20052;-72
2022/10/18 13:05:50;;;;;;;6.35;2.40;;;;;;;;;;5020877;28;20030;-72
2022/10/18 13:08:29;;;;;;;10.73;2.78;;;;;;;;;;5019926;28;20040;-72
2022/10/18 13:11:01;;;;;;;9.00;2.72;;;;;;;;;;5019378;28;20044;-73
2022/10/18 13:13:30;;;;;;;8.82;2.17;;;;;;;;;;5018505;28;20112;-72
2022/10/18 13:16:00;;;;;;;7.25;2.28;;;;;;;;;;5017407;28;20083;-72
2022/10/18 13:18:32;;;;;;;12.80;2.50;;;;;;;;;;5021676;28;20460;-72
2022/10/18 13:21:19;;;;;;;11.45;2.42;;;;;;;;;;5022976;28;20129;-72
2022/10/18 13:23:54;;;;;;;7.07;1.90;;;;;;;;;;5013554;28;20026;-72
2022/10/18 13:26:33;;;;;;;5.95;2.00;;;;;;;;;;5013756;28;20040;-72
2022/10/18 13:29:18;;;;;;;10.57;2.30;;;;;;;;;;5016118;28;20468;-73
2022/10/18 13:31:49;;;;;;;7.40;1.73;;;;;;;;;;5018395;28;20188;-72
2022/10/18 13:34:23;;;;;;;9.70;1.83;;;;;;;;;;5015263;28;20054;-72
2022/10/18 13:37:01;;;;;;;10.75;1.83;;;;;;;;;;5022550;28;20034;-73
2022/10/18 13:39:28;;;;;;;6.97;2.30;;;;;;;;;;5017101;28;20033;-72
2022/10/18 13:41:56;;;;;;;10.88;2.50;;;;;;;;;;5015475;28;20045;-72
2022/10/18 13:44:36;;;;;;;12.95;1.98;;;;;;;;;;5016960;28;20026;-73
2022/10/18 13:47:02;;;;;;;16.40;2.80;;;;;;;;;;5022059;28;20065;-72
2022/10/18 13:49:34;;;;;;;12.13;2.42;;;;;;;;;;5022387;28;20060;-72
2022/10/18 13:52:00;;;;;;;7.60;1.77;;;;;;;;;;5021129;28;20033;-72
2022/10/18 13:54:35;;;;;;;7.63;1.42;;;;;;;;;;5016288;28;20093;-72
2022/10/18 13:57:10;;;;;;;11.77;1.80;;;;;;;;;;5018427;28;20048;-73
2022/10/18 13:59:39;;;;;;;8.15;1.88;;;;;;;;;;5020914;28;20060;-72
2022/10/18 14:02:30;;;;;;;6.43;1.73;;;;;;;;;;5016788;28;20041;-72
2022/10/18 14:05:04;;;;;;;7.47;1.35;;;;;;;;;;5021945;28;20345;-72
2022/10/18 14:07:30;;;;;;;7.45;1.67;;;;;;;;;;5014407;28;20021;-72
2022/10/18 14:09:57;;;;;;;6.00;1.88;;;;;;;;;;5019064;28;20075;-72
2022/10/18 14:12:37;;;;;;;9.07;2.42;;;;;;;;;;5019607;28;20495;-73
2022/10/18 14:15:14;;;;;;;7.28;1.55;;;;;;;;;;5017432;28;20065;-72
2022/10/18 14:17:49;;;;;;;8.75;2.17;;;;;;;;;;5017513;28;20064;-72
2022/10/18 14:20:29;;;;;;;14.02;1.83;;;;;;;;;;5016093;28;20038;-72
2022/10/18 14:23:07;;;;;;;7.72;1.48;;;;;;;;;;5017500;28;20033;-72
2022/10/18 14:25:36;;;;;;;8.90;1.77;;;;;;;;;;5015215;28;20044;-72
2022/10/18 14:28:18;;;;;;;12.60;1.75;;;;;;;;;;5012667;28;20025;-72
2022/10/18 14:31:00;;;;;;;10.27;1.85;;;;;;;;;;5015403;28;20507;-73
2022/10/18 14:33:29;;;;;;;6.13;1.63;;;;;;;;;;5002881;28;20380;-73
2022/10/18 14:36:05;;;;;;;11.23;1.70;;;;;;;;;;5024395;28;20050;-72
2022/10/18 14:38:31;;;;;;;7.68;1.63;;;;;;;;;;5021911;28;20025;-72
2022/10/18 14:41:26;;;;;;;5.50;1.98;;;;;;;;;;5018286;28;20045;-72
2022/10/18 14:43:53;;;;;;;11.65;1.70;;;;;;;;;;5006409;28;20041;-73
2022/10/18 14:46:26;;;;;;;7.10;1.70;;;;;;;;;;5025453;28;20919;-72
2022/10/18 14:48:57;;;;;;;8.70;1.52;;;;;;;;;;5020098;28;20029;-72